createdAt,value
2023-02-19T00:00:05.216Z,6.78
2023-02-19T00:00:15.242Z,6.78
2023-02-19T00:00:25.255Z,6.77
2023-02-19T00:00:35.234Z,6.77
2023-02-19T00:00:45.238Z,6.76
2023-02-19T00:00:55.264Z,6.75
2023-02-19T00:01:05.224Z,6.75
2023-02-19T00:01:15.217Z,6.74
2023-02-19T00:01:25.224Z,6.72
2023-02-19T00:01:35.222Z,6.72
2023-02-19T00:01:45.227Z,6.72
2023-02-19T00:01:55.240Z,6.71
2023-02-19T00:02:05.207Z,6.71
2023-02-19T00:02:15.216Z,6.70
2023-02-19T00:02:25.233Z,6.69
2023-02-19T00:02:35.212Z,6.68
2023-02-19T00:02:45.212Z,6.67
2023-02-19T00:02:55.216Z,6.65
2023-02-19T00:03:05.220Z,6.65
2023-02-19T00:03:15.272Z,6.63
2023-02-19T00:03:25.229Z,6.62
2023-02-19T00:03:35.290Z,6.61
2023-02-19T00:03:45.228Z,6.61
2023-02-19T00:03:55.221Z,6.61
2023-02-19T00:04:05.220Z,6.61
2023-02-19T00:04:15.214Z,6.61
2023-02-19T00:04:25.211Z,6.60
2023-02-19T00:04:35.248Z,6.60
2023-02-19T00:04:45.250Z,6.60
2023-02-19T00:04:55.300Z,6.61
2023-02-19T00:05:05.273Z,6.63
2023-02-19T00:05:15.247Z,6.64
2023-02-19T00:05:25.217Z,6.65
2023-02-19T00:05:35.220Z,6.66
2023-02-19T00:05:45.232Z,6.68
2023-02-19T00:05:55.244Z,6.67
2023-02-19T00:06:05.238Z,6.68
2023-02-19T00:06:15.243Z,6.69
2023-02-19T00:06:25.255Z,6.68
2023-02-19T00:06:35.230Z,6.69
2023-02-19T00:06:45.275Z,6.67
2023-02-19T00:06:55.276Z,6.66
2023-02-19T00:07:05.259Z,6.65
2023-02-19T00:07:15.291Z,6.63
2023-02-19T00:07:25.306Z,6.63
2023-02-19T00:07:35.284Z,6.62
2023-02-19T00:07:45.303Z,6.61
2023-02-19T00:07:55.328Z,6.61
2023-02-19T00:08:05.318Z,6.60
2023-02-19T00:08:15.345Z,6.61
2023-02-19T00:08:25.347Z,6.61
2023-02-19T00:08:35.433Z,6.59
2023-02-19T00:08:45.383Z,6.59
2023-02-19T00:08:55.347Z,6.56
2023-02-19T00:09:05.372Z,6.55
2023-02-19T00:09:15.435Z,6.54
2023-02-19T00:09:25.391Z,6.54
2023-02-19T00:09:35.398Z,6.53
2023-02-19T00:09:45.421Z,6.53
2023-02-19T00:09:55.419Z,6.52
2023-02-19T00:10:05.423Z,6.53
2023-02-19T00:10:15.455Z,6.54
2023-02-19T00:10:25.435Z,6.52
2023-02-19T00:10:35.435Z,6.50
2023-02-19T00:10:45.445Z,6.49
2023-02-19T00:10:55.459Z,6.48
2023-02-19T00:11:05.485Z,6.48
2023-02-19T00:11:15.492Z,6.46
2023-02-19T00:11:25.507Z,6.45
2023-02-19T00:11:35.508Z,6.45
2023-02-19T00:11:45.509Z,6.44
2023-02-19T00:11:55.516Z,6.43
2023-02-19T00:12:05.517Z,6.43
2023-02-19T00:12:15.538Z,6.44
2023-02-19T00:12:25.549Z,6.43
2023-02-19T00:12:35.520Z,6.44
2023-02-19T00:12:45.571Z,6.44
2023-02-19T00:12:55.559Z,6.45
2023-02-19T00:13:05.568Z,6.45
2023-02-19T00:13:15.589Z,6.45
2023-02-19T00:13:25.605Z,6.47
2023-02-19T00:13:35.637Z,6.46
2023-02-19T00:13:45.621Z,6.46
2023-02-19T00:13:55.622Z,6.46
2023-02-19T00:14:05.620Z,6.45
2023-02-19T00:14:15.641Z,6.43
2023-02-19T00:14:25.632Z,6.39
2023-02-19T00:14:35.625Z,6.37
2023-02-19T00:14:45.685Z,6.35
2023-02-19T00:14:55.649Z,6.34
2023-02-19T00:15:05.650Z,6.33
2023-02-19T00:15:15.693Z,6.33
2023-02-19T00:15:25.785Z,6.32
2023-02-19T00:15:35.684Z,6.31
2023-02-19T00:15:45.728Z,6.32
2023-02-19T00:15:55.780Z,6.31
2023-02-19T00:16:05.771Z,6.31
2023-02-19T00:16:15.754Z,6.31
2023-02-19T00:16:25.741Z,6.31
2023-02-19T00:16:35.757Z,6.32
2023-02-19T00:16:45.758Z,6.32
2023-02-19T00:16:55.794Z,6.33
2023-02-19T00:17:05.753Z,6.33
2023-02-19T00:17:15.806Z,6.34
2023-02-19T00:17:25.789Z,6.34
2023-02-19T00:17:35.805Z,6.34
2023-02-19T00:17:45.817Z,6.34
2023-02-19T00:17:55.810Z,6.35
2023-02-19T00:18:05.812Z,6.35
2023-02-19T00:18:15.836Z,6.35
2023-02-19T00:18:25.815Z,6.35
2023-02-19T00:18:35.897Z,6.34
2023-02-19T00:18:45.871Z,6.35
2023-02-19T00:18:55.860Z,6.35
2023-02-19T00:19:05.853Z,6.34
2023-02-19T00:19:15.904Z,6.33
2023-02-19T00:19:25.890Z,6.33
2023-02-19T00:19:35.885Z,6.33
2023-02-19T00:19:45.889Z,6.36
2023-02-19T00:19:55.938Z,6.37
2023-02-19T00:20:05.912Z,6.37
2023-02-19T00:20:15.949Z,6.38
2023-02-19T00:20:25.926Z,6.38
2023-02-19T00:20:35.944Z,6.39
2023-02-19T00:20:45.962Z,6.40
2023-02-19T00:20:55.945Z,6.40
2023-02-19T00:21:05.961Z,6.39
2023-02-19T00:21:15.990Z,6.39
2023-02-19T00:21:25.990Z,6.39
2023-02-19T00:21:35.972Z,6.38
2023-02-19T00:21:46.023Z,6.36
2023-02-19T00:21:56.020Z,6.35
2023-02-19T00:22:06.015Z,6.33
2023-02-19T00:22:16.029Z,6.32
2023-02-19T00:22:26.023Z,6.31
2023-02-19T00:22:36.035Z,6.30
2023-02-19T00:22:46.063Z,6.28
2023-02-19T00:22:56.051Z,6.28
2023-02-19T00:23:06.059Z,6.27
2023-02-19T00:23:16.112Z,6.27
2023-02-19T00:23:26.102Z,6.26
2023-02-19T00:23:36.136Z,6.26
2023-02-19T00:23:46.112Z,6.26
2023-02-19T00:23:56.122Z,6.27
2023-02-19T00:24:06.123Z,6.26
2023-02-19T00:24:16.136Z,6.27
2023-02-19T00:24:26.151Z,6.27
2023-02-19T00:24:36.135Z,6.28
2023-02-19T00:24:47.840Z,6.28
2023-02-19T00:24:56.158Z,6.27
2023-02-19T00:25:06.159Z,6.27
2023-02-19T00:25:16.159Z,6.27
2023-02-19T00:25:26.152Z,6.27
2023-02-19T00:25:36.162Z,6.26
2023-02-19T00:25:46.165Z,6.26
2023-02-19T00:26:00.984Z,6.25
2023-02-19T00:26:17.554Z,6.21
2023-02-19T00:26:18.734Z,6.17
2023-02-19T00:26:26.153Z,6.19
2023-02-19T00:26:36.171Z,6.20
2023-02-19T00:26:46.157Z,6.19
2023-02-19T00:26:56.144Z,6.17
2023-02-19T00:27:06.191Z,6.18
2023-02-19T00:27:16.144Z,6.19
2023-02-19T00:27:26.162Z,6.18
2023-02-19T00:27:36.146Z,6.17
2023-02-19T00:27:46.146Z,6.17
2023-02-19T00:27:56.156Z,6.15
2023-02-19T00:28:06.172Z,6.14
2023-02-19T00:28:16.166Z,6.12
2023-02-19T00:28:26.167Z,6.11
2023-02-19T00:28:36.155Z,6.09
2023-02-19T00:28:46.222Z,6.09
2023-02-19T00:28:56.123Z,6.07
2023-02-19T00:29:06.137Z,6.06
2023-02-19T00:29:16.139Z,6.06
2023-02-19T00:29:26.121Z,6.05
2023-02-19T00:29:36.154Z,6.05
2023-02-19T00:29:46.141Z,6.03
2023-02-19T00:29:56.135Z,6.03
2023-02-19T00:30:06.173Z,6.01
2023-02-19T00:30:16.183Z,6.00
2023-02-19T00:30:26.198Z,5.98
2023-02-19T00:30:36.133Z,5.98
2023-02-19T00:30:46.160Z,5.98
2023-02-19T00:30:56.181Z,5.99
2023-02-19T00:31:06.195Z,5.99
2023-02-19T00:31:16.215Z,5.98
2023-02-19T00:31:26.246Z,5.98
2023-02-19T00:31:36.238Z,5.98
2023-02-19T00:31:46.356Z,5.97
2023-02-19T00:31:56.262Z,5.98
2023-02-19T00:32:06.193Z,5.98
2023-02-19T00:32:16.163Z,5.98
2023-02-19T00:32:26.125Z,5.99
2023-02-19T00:32:36.148Z,5.98
2023-02-19T00:32:46.149Z,5.98
2023-02-19T00:32:56.119Z,5.98
2023-02-19T00:33:06.131Z,5.98
2023-02-19T00:33:16.143Z,5.98
2023-02-19T00:33:26.123Z,5.98
2023-02-19T00:33:36.131Z,5.99
2023-02-19T00:33:46.149Z,5.98
2023-02-19T00:33:56.182Z,5.99
2023-02-19T00:34:06.124Z,5.99
2023-02-19T00:34:16.110Z,5.99
2023-02-19T00:34:26.123Z,5.98
2023-02-19T00:34:36.139Z,5.98
2023-02-19T00:34:46.122Z,5.96
2023-02-19T00:34:56.113Z,5.95
2023-02-19T00:35:06.132Z,5.93
2023-02-19T00:35:16.095Z,5.92
2023-02-19T00:35:26.129Z,5.90
2023-02-19T00:35:36.121Z,5.89
2023-02-19T00:35:46.109Z,5.87
2023-02-19T00:35:56.137Z,5.84
2023-02-19T00:36:06.123Z,5.84
2023-02-19T00:36:16.108Z,5.82
2023-02-19T00:36:26.121Z,5.82
2023-02-19T00:36:36.290Z,5.80
2023-02-19T00:36:46.109Z,5.80
2023-02-19T00:36:56.117Z,5.78
2023-02-19T00:37:06.125Z,5.77
2023-02-19T00:37:16.120Z,5.76
2023-02-19T00:37:26.142Z,5.76
2023-02-19T00:37:36.125Z,5.75
2023-02-19T00:37:46.120Z,5.74
2023-02-19T00:37:56.133Z,5.74
2023-02-19T00:38:06.111Z,5.73
2023-02-19T00:38:16.126Z,5.72
2023-02-19T00:38:26.138Z,5.71
2023-02-19T00:38:36.142Z,5.70
2023-02-19T00:38:46.156Z,5.69
2023-02-19T00:38:56.150Z,5.69
2023-02-19T00:39:06.244Z,5.68
2023-02-19T00:39:16.196Z,5.67
2023-02-19T00:39:26.198Z,5.66
2023-02-19T00:39:36.184Z,5.66
2023-02-19T00:39:46.209Z,5.67
2023-02-19T00:39:56.225Z,5.65
2023-02-19T00:40:06.221Z,5.66
2023-02-19T00:40:16.230Z,5.65
2023-02-19T00:40:26.245Z,5.66
2023-02-19T00:40:36.234Z,5.65
2023-02-19T00:40:46.232Z,5.65
2023-02-19T00:40:56.254Z,5.66
2023-02-19T00:41:06.239Z,5.66
2023-02-19T00:41:16.240Z,5.65
2023-02-19T00:41:26.313Z,5.65
2023-02-19T00:41:36.257Z,5.66
2023-02-19T00:41:46.344Z,5.65
2023-02-19T00:41:56.328Z,5.65
2023-02-19T00:42:06.296Z,5.65
2023-02-19T00:42:16.300Z,5.63
2023-02-19T00:42:26.325Z,5.61
2023-02-19T00:42:36.332Z,5.61
2023-02-19T00:42:46.323Z,5.59
2023-02-19T00:42:56.360Z,5.58
2023-02-19T00:43:06.350Z,5.57
2023-02-19T00:43:16.373Z,5.55
2023-02-19T00:43:26.387Z,5.54
2023-02-19T00:43:36.369Z,5.52
2023-02-19T00:43:46.396Z,5.51
2023-02-19T00:43:56.424Z,5.50
2023-02-19T00:44:06.489Z,5.49
2023-02-19T00:44:16.404Z,5.48
2023-02-19T00:44:26.441Z,5.49
2023-02-19T00:44:36.435Z,5.49
2023-02-19T00:44:46.423Z,5.50
2023-02-19T00:44:56.467Z,5.50
2023-02-19T00:45:06.442Z,5.49
2023-02-19T00:45:16.453Z,5.49
2023-02-19T00:45:26.502Z,5.49
2023-02-19T00:45:36.479Z,5.49
2023-02-19T00:45:46.496Z,5.48
2023-02-19T00:45:56.540Z,5.48
2023-02-19T00:46:06.495Z,5.48
2023-02-19T00:46:16.546Z,5.48
2023-02-19T00:46:26.602Z,5.49
2023-02-19T00:46:36.681Z,5.49
2023-02-19T00:46:46.545Z,5.49
2023-02-19T00:46:56.560Z,5.49
2023-02-19T00:47:06.551Z,5.50
2023-02-19T00:47:16.581Z,5.50
2023-02-19T00:47:26.573Z,5.51
2023-02-19T00:47:36.574Z,5.51
2023-02-19T00:47:46.596Z,5.52
2023-02-19T00:47:56.613Z,5.52
2023-02-19T00:48:06.602Z,5.52
2023-02-19T00:48:16.606Z,5.52
2023-02-19T00:48:26.637Z,5.52
2023-02-19T00:48:36.635Z,5.52
2023-02-19T00:48:46.653Z,5.53
2023-02-19T00:48:56.664Z,5.53
2023-02-19T00:49:06.713Z,5.52
2023-02-19T00:49:16.680Z,5.52
2023-02-19T00:49:26.679Z,5.52
2023-02-19T00:49:36.678Z,5.51
2023-02-19T00:49:46.677Z,5.51
2023-02-19T00:49:56.711Z,5.50
2023-02-19T00:50:06.700Z,5.50
2023-02-19T00:50:16.717Z,5.50
2023-02-19T00:50:26.740Z,5.49
2023-02-19T00:50:36.730Z,5.49
2023-02-19T00:50:46.745Z,5.49
2023-02-19T00:50:56.761Z,5.49
2023-02-19T00:51:06.766Z,5.49
2023-02-19T00:51:16.759Z,5.50
2023-02-19T00:51:26.782Z,5.51
2023-02-19T00:51:36.790Z,5.52
2023-02-19T00:51:46.781Z,5.53
2023-02-19T00:51:56.812Z,5.55
2023-02-19T00:52:06.803Z,5.54
2023-02-19T00:52:16.795Z,5.55
2023-02-19T00:52:26.824Z,5.55
2023-02-19T00:52:36.836Z,5.55
2023-02-19T00:52:46.857Z,5.55
2023-02-19T00:52:56.879Z,5.54
2023-02-19T00:53:06.854Z,5.53
2023-02-19T00:53:16.863Z,5.53
2023-02-19T00:53:26.874Z,5.52
2023-02-19T00:53:36.894Z,5.52
2023-02-19T00:53:46.902Z,5.51
2023-02-19T00:53:56.890Z,5.50
2023-02-19T00:54:06.965Z,5.51
2023-02-19T00:54:16.902Z,5.51
2023-02-19T00:54:26.952Z,5.50
2023-02-19T00:54:36.935Z,5.50
2023-02-19T00:54:46.935Z,5.50
2023-02-19T00:54:57.324Z,5.51
2023-02-19T00:55:06.963Z,5.51
2023-02-19T00:55:16.955Z,5.52
2023-02-19T00:55:26.947Z,5.52
2023-02-19T00:55:36.957Z,5.51
2023-02-19T00:55:46.946Z,5.49
2023-02-19T00:55:56.965Z,5.50
2023-02-19T00:56:06.944Z,5.51
2023-02-19T00:56:16.956Z,5.52
2023-02-19T00:56:26.948Z,5.53
2023-02-19T00:56:36.931Z,5.54
2023-02-19T00:56:46.927Z,5.55
2023-02-19T00:56:56.929Z,5.55
2023-02-19T00:57:06.967Z,5.56
2023-02-19T00:57:16.941Z,5.55
2023-02-19T00:57:26.986Z,5.55
2023-02-19T00:57:36.948Z,5.55
2023-02-19T00:57:46.945Z,5.55
2023-02-19T00:57:56.951Z,5.56
2023-02-19T00:58:06.939Z,5.56
2023-02-19T00:58:16.939Z,5.57
2023-02-19T00:58:26.942Z,5.57
2023-02-19T00:58:36.928Z,5.57
2023-02-19T00:58:46.942Z,5.57
2023-02-19T00:58:56.939Z,5.57
2023-02-19T00:59:06.933Z,5.57
2023-02-19T00:59:17.028Z,5.57
2023-02-19T00:59:26.945Z,5.58
2023-02-19T00:59:36.942Z,5.58
2023-02-19T00:59:46.923Z,5.57
2023-02-19T00:59:56.923Z,5.58
2023-02-19T01:00:06.939Z,5.57
2023-02-19T01:00:16.941Z,5.56
2023-02-19T01:00:26.932Z,5.55
2023-02-19T01:00:36.937Z,5.54
2023-02-19T01:00:46.938Z,5.55
2023-02-19T01:00:56.930Z,5.54
2023-02-19T01:01:06.948Z,5.54
2023-02-19T01:01:16.964Z,5.53
2023-02-19T01:01:27.023Z,5.53
2023-02-19T01:01:37.008Z,5.53
2023-02-19T01:01:47.009Z,5.53
2023-02-19T01:01:57.001Z,5.53
2023-02-19T01:02:06.985Z,5.53
2023-02-19T01:02:16.989Z,5.53
2023-02-19T01:02:27.022Z,5.53
2023-02-19T01:02:37.027Z,5.53
2023-02-19T01:02:47.008Z,5.53
2023-02-19T01:02:57.034Z,5.52
2023-02-19T01:03:07.044Z,5.51
2023-02-19T01:03:17.055Z,5.52
2023-02-19T01:03:27.062Z,5.49
2023-02-19T01:03:37.060Z,5.47
2023-02-19T01:03:47.057Z,5.45
2023-02-19T01:03:57.059Z,5.44
2023-02-19T01:04:07.125Z,5.43
2023-02-19T01:04:17.133Z,5.42
2023-02-19T01:04:27.130Z,5.41
2023-02-19T01:04:37.135Z,5.41
2023-02-19T01:04:47.152Z,5.41
2023-02-19T01:04:57.178Z,5.40
2023-02-19T01:05:07.133Z,5.40
2023-02-19T01:05:17.139Z,5.40
2023-02-19T01:05:27.158Z,5.38
2023-02-19T01:05:37.156Z,5.38
2023-02-19T01:05:47.157Z,5.37
2023-02-19T01:05:57.211Z,5.36
2023-02-19T01:06:07.191Z,5.37
2023-02-19T01:06:17.196Z,5.37
2023-02-19T01:06:27.230Z,5.37
2023-02-19T01:06:37.296Z,5.37
2023-02-19T01:06:47.211Z,5.37
2023-02-19T01:06:57.233Z,5.38
2023-02-19T01:07:10.034Z,5.38
2023-02-19T01:07:17.253Z,5.37
2023-02-19T01:07:27.228Z,5.38
2023-02-19T01:07:37.238Z,5.38
2023-02-19T01:07:47.220Z,5.37
2023-02-19T01:07:57.222Z,5.36
2023-02-19T01:08:07.237Z,5.36
2023-02-19T01:08:17.248Z,5.34
2023-02-19T01:08:27.223Z,5.33
2023-02-19T01:08:37.207Z,5.31
2023-02-19T01:08:47.204Z,5.27
2023-02-19T01:08:57.226Z,5.26
2023-02-19T01:09:07.221Z,5.24
2023-02-19T01:09:17.289Z,5.25
2023-02-19T01:09:27.194Z,5.22
2023-02-19T01:09:37.216Z,5.21
2023-02-19T01:09:47.225Z,5.20
2023-02-19T01:09:57.235Z,5.21
2023-02-19T01:10:07.209Z,5.22
2023-02-19T01:10:17.260Z,5.22
2023-02-19T01:10:27.228Z,5.23
2023-02-19T01:10:37.217Z,5.23
2023-02-19T01:10:47.209Z,5.24
2023-02-19T01:10:57.204Z,5.24
2023-02-19T01:11:07.228Z,5.24
2023-02-19T01:11:17.227Z,5.24
2023-02-19T01:11:27.190Z,5.26
2023-02-19T01:11:37.252Z,5.27
2023-02-19T01:11:47.214Z,5.27
2023-02-19T01:11:57.195Z,5.29
2023-02-19T01:12:07.213Z,5.29
2023-02-19T01:12:17.226Z,5.30
2023-02-19T01:12:27.217Z,5.31
2023-02-19T01:12:37.216Z,5.31
2023-02-19T01:12:47.209Z,5.30
2023-02-19T01:12:57.205Z,5.31
2023-02-19T01:13:07.229Z,5.31
2023-02-19T01:13:17.209Z,5.31
2023-02-19T01:13:27.198Z,5.30
2023-02-19T01:13:37.204Z,5.30
2023-02-19T01:13:47.217Z,5.31
2023-02-19T01:13:57.205Z,5.31
2023-02-19T01:14:07.221Z,5.30
2023-02-19T01:14:17.217Z,5.31
2023-02-19T01:14:27.274Z,5.31
2023-02-19T01:14:37.224Z,5.32
2023-02-19T01:14:47.228Z,5.31
2023-02-19T01:14:57.210Z,5.31
2023-02-19T01:15:07.202Z,5.31
2023-02-19T01:15:17.195Z,5.30
2023-02-19T01:15:27.189Z,5.31
2023-02-19T01:15:37.206Z,5.30
2023-02-19T01:15:47.240Z,5.29
2023-02-19T01:15:57.212Z,5.27
2023-02-19T01:16:07.261Z,5.27
2023-02-19T01:16:17.255Z,5.26
2023-02-19T01:16:27.210Z,5.25
2023-02-19T01:16:37.200Z,5.24
2023-02-19T01:16:47.193Z,5.23
2023-02-19T01:16:57.180Z,5.21
2023-02-19T01:17:07.182Z,5.19
2023-02-19T01:17:17.199Z,5.18
2023-02-19T01:17:27.197Z,5.18
2023-02-19T01:17:37.198Z,5.17
2023-02-19T01:17:47.207Z,5.16
2023-02-19T01:17:57.216Z,5.17
2023-02-19T01:18:07.194Z,5.17
2023-02-19T01:18:17.207Z,5.17
2023-02-19T01:18:27.231Z,5.17
2023-02-19T01:18:37.176Z,5.17
2023-02-19T01:18:47.186Z,5.17
2023-02-19T01:18:57.202Z,5.17
2023-02-19T01:19:07.180Z,5.17
2023-02-19T01:19:17.197Z,5.17
2023-02-19T01:19:27.200Z,5.17
2023-02-19T01:19:37.246Z,5.16
2023-02-19T01:19:47.186Z,5.15
2023-02-19T01:19:57.195Z,5.15
2023-02-19T01:20:07.190Z,5.15
2023-02-19T01:20:17.206Z,5.13
2023-02-19T01:20:27.183Z,5.13
2023-02-19T01:20:37.195Z,5.10
2023-02-19T01:20:47.175Z,5.09
2023-02-19T01:20:57.178Z,5.08
2023-02-19T01:21:07.347Z,5.06
2023-02-19T01:21:17.193Z,5.05
2023-02-19T01:21:27.214Z,5.06
2023-02-19T01:21:37.167Z,5.06
2023-02-19T01:21:47.177Z,5.06
2023-02-19T01:21:57.167Z,5.06
2023-02-19T01:22:07.173Z,5.07
2023-02-19T01:22:17.202Z,5.08
2023-02-19T01:22:27.175Z,5.10
2023-02-19T01:22:37.174Z,5.12
2023-02-19T01:22:47.184Z,5.13
2023-02-19T01:22:57.167Z,5.14
2023-02-19T01:23:07.165Z,5.14
2023-02-19T01:23:17.187Z,5.16
2023-02-19T01:23:27.167Z,5.15
2023-02-19T01:23:37.178Z,5.17
2023-02-19T01:23:47.228Z,5.18
2023-02-19T01:23:57.177Z,5.18
2023-02-19T01:24:07.168Z,5.19
2023-02-19T01:24:17.194Z,5.19
2023-02-19T01:24:27.177Z,5.19
2023-02-19T01:24:37.180Z,5.19
2023-02-19T01:24:47.227Z,5.19
2023-02-19T01:24:57.175Z,5.19
2023-02-19T01:25:07.173Z,5.19
2023-02-19T01:25:17.160Z,5.20
2023-02-19T01:25:27.168Z,5.20
2023-02-19T01:25:37.168Z,5.20
2023-02-19T01:25:47.188Z,5.21
2023-02-19T01:25:57.176Z,5.21
2023-02-19T01:26:07.175Z,5.22
2023-02-19T01:26:17.184Z,5.20
2023-02-19T01:26:27.175Z,5.20
2023-02-19T01:26:37.157Z,5.20
2023-02-19T01:26:47.153Z,5.19
2023-02-19T01:26:57.142Z,5.20
2023-02-19T01:27:07.139Z,5.19
2023-02-19T01:27:17.151Z,5.18
2023-02-19T01:27:27.149Z,5.18
2023-02-19T01:27:37.142Z,5.17
2023-02-19T01:27:47.174Z,5.18
2023-02-19T01:27:57.170Z,5.17
2023-02-19T01:28:07.164Z,5.15
2023-02-19T01:28:17.178Z,5.13
2023-02-19T01:28:27.196Z,5.14
2023-02-19T01:28:37.211Z,5.13
2023-02-19T01:28:47.223Z,5.12
2023-02-19T01:28:57.206Z,5.12
2023-02-19T01:29:07.208Z,5.12
2023-02-19T01:29:17.236Z,5.12
2023-02-19T01:29:27.242Z,5.12
2023-02-19T01:29:37.230Z,5.12
2023-02-19T01:29:47.350Z,5.13
2023-02-19T01:29:57.271Z,5.13
2023-02-19T01:30:07.301Z,5.12
2023-02-19T01:30:17.308Z,5.13
2023-02-19T01:30:27.352Z,5.14
2023-02-19T01:30:37.301Z,5.14
2023-02-19T01:30:47.333Z,5.15
2023-02-19T01:30:57.339Z,5.15
2023-02-19T01:31:07.512Z,5.16
2023-02-19T01:31:17.426Z,5.17
2023-02-19T01:31:27.468Z,5.17
2023-02-19T01:31:37.359Z,5.17
2023-02-19T01:31:47.507Z,5.15
2023-02-19T01:31:57.434Z,5.16
2023-02-19T01:32:07.435Z,5.17
2023-02-19T01:32:17.333Z,5.17
2023-02-19T01:32:27.336Z,5.18
2023-02-19T01:32:37.329Z,5.17
2023-02-19T01:32:47.328Z,5.17
2023-02-19T01:32:57.339Z,5.16
2023-02-19T01:33:07.327Z,5.16
2023-02-19T01:33:17.340Z,5.15
2023-02-19T01:33:27.325Z,5.14
2023-02-19T01:33:37.321Z,5.14
2023-02-19T01:33:47.333Z,5.13
2023-02-19T01:33:57.340Z,5.14
2023-02-19T01:34:07.325Z,5.14
2023-02-19T01:34:17.342Z,5.14
2023-02-19T01:34:27.329Z,5.14
2023-02-19T01:34:37.340Z,5.14
2023-02-19T01:34:47.428Z,5.15
2023-02-19T01:34:57.346Z,5.15
2023-02-19T01:35:07.375Z,5.14
2023-02-19T01:35:17.398Z,5.14
2023-02-19T01:35:27.387Z,5.15
2023-02-19T01:35:37.397Z,5.15
2023-02-19T01:35:47.418Z,5.15
2023-02-19T01:35:57.407Z,5.17
2023-02-19T01:36:07.402Z,5.16
2023-02-19T01:36:17.417Z,5.14
2023-02-19T01:36:27.442Z,5.14
2023-02-19T01:36:37.431Z,5.12
2023-02-19T01:36:47.450Z,5.11
2023-02-19T01:36:57.444Z,5.09
2023-02-19T01:37:07.456Z,5.09
2023-02-19T01:37:17.499Z,5.08
2023-02-19T01:37:27.513Z,5.08
2023-02-19T01:37:37.491Z,5.07
2023-02-19T01:37:47.508Z,5.09
2023-02-19T01:37:57.512Z,5.08
2023-02-19T01:38:07.508Z,5.09
2023-02-19T01:38:17.549Z,5.10
2023-02-19T01:38:27.537Z,5.10
2023-02-19T01:38:37.531Z,5.10
2023-02-19T01:38:47.539Z,5.10
2023-02-19T01:38:57.577Z,5.10
2023-02-19T01:39:07.559Z,5.11
2023-02-19T01:39:17.600Z,5.10
2023-02-19T01:39:27.576Z,5.11
2023-02-19T01:39:37.591Z,5.10
2023-02-19T01:39:47.686Z,5.10
2023-02-19T01:39:57.614Z,5.10
2023-02-19T01:40:07.598Z,5.10
2023-02-19T01:40:17.632Z,5.09
2023-02-19T01:40:27.621Z,5.08
2023-02-19T01:40:37.627Z,5.07
2023-02-19T01:40:47.639Z,5.07
2023-02-19T01:40:57.672Z,5.05
2023-02-19T01:41:07.772Z,5.05
2023-02-19T01:41:17.682Z,5.04
2023-02-19T01:41:27.677Z,5.03
2023-02-19T01:41:37.692Z,5.02
2023-02-19T01:41:47.704Z,5.00
2023-02-19T01:41:57.706Z,4.99
2023-02-19T01:42:07.737Z,4.98
2023-02-19T01:42:17.765Z,4.99
2023-02-19T01:42:27.748Z,4.99
2023-02-19T01:42:37.748Z,4.98
2023-02-19T01:42:47.752Z,4.97
2023-02-19T01:42:57.753Z,4.97
2023-02-19T01:43:07.781Z,4.97
2023-02-19T01:43:17.802Z,4.97
2023-02-19T01:43:27.788Z,4.96
2023-02-19T01:43:37.779Z,4.97
2023-02-19T01:43:47.800Z,4.96
2023-02-19T01:43:57.820Z,4.96
2023-02-19T01:44:07.901Z,4.96
2023-02-19T01:44:17.829Z,4.96
2023-02-19T01:44:27.836Z,4.96
2023-02-19T01:44:37.841Z,4.97
2023-02-19T01:44:47.937Z,4.96
2023-02-19T01:44:57.857Z,4.97
2023-02-19T01:45:07.856Z,4.96
2023-02-19T01:45:17.876Z,4.96
2023-02-19T01:45:27.904Z,4.96
2023-02-19T01:45:37.902Z,4.95
2023-02-19T01:45:47.902Z,4.96
2023-02-19T01:45:57.919Z,4.95
2023-02-19T01:46:07.908Z,4.95
2023-02-19T01:46:17.983Z,4.95
2023-02-19T01:46:28.013Z,4.95
2023-02-19T01:46:37.989Z,4.94
2023-02-19T01:46:47.961Z,4.94
2023-02-19T01:46:57.945Z,4.93
2023-02-19T01:47:07.972Z,4.92
2023-02-19T01:47:17.999Z,4.91
2023-02-19T01:47:27.969Z,4.88
2023-02-19T01:47:37.980Z,4.88
2023-02-19T01:47:48.007Z,4.87
2023-02-19T01:47:58.018Z,4.86
2023-02-19T01:48:08.011Z,4.85
2023-02-19T01:48:18.021Z,4.84
2023-02-19T01:48:28.034Z,4.82
2023-02-19T01:48:38.040Z,4.83
2023-02-19T01:48:48.059Z,4.81
2023-02-19T01:48:58.062Z,4.80
2023-02-19T01:49:08.061Z,4.78
2023-02-19T01:49:18.100Z,4.76
2023-02-19T01:49:28.094Z,4.75
2023-02-19T01:49:38.095Z,4.72
2023-02-19T01:49:48.166Z,4.71
2023-02-19T01:49:58.119Z,4.71
2023-02-19T01:50:08.111Z,4.70
2023-02-19T01:50:18.125Z,4.69
2023-02-19T01:50:28.138Z,4.69
2023-02-19T01:50:38.129Z,4.68
2023-02-19T01:50:48.141Z,4.67
2023-02-19T01:50:58.148Z,4.67
2023-02-19T01:51:08.705Z,4.66
2023-02-19T01:51:18.155Z,4.65
2023-02-19T01:51:28.157Z,4.67
2023-02-19T01:51:38.144Z,4.67
2023-02-19T01:51:48.167Z,4.67
2023-02-19T01:51:58.141Z,4.67
2023-02-19T01:52:08.144Z,4.67
2023-02-19T01:52:18.156Z,4.66
2023-02-19T01:52:28.147Z,4.67
2023-02-19T01:52:38.159Z,4.67
2023-02-19T01:52:48.147Z,4.66
2023-02-19T01:52:58.148Z,4.66
2023-02-19T01:53:08.171Z,4.66
2023-02-19T01:53:18.151Z,4.65
2023-02-19T01:53:28.145Z,4.65
2023-02-19T01:53:38.156Z,4.65
2023-02-19T01:53:48.174Z,4.65
2023-02-19T01:53:58.154Z,4.65
2023-02-19T01:54:08.165Z,4.64
2023-02-19T01:54:18.184Z,4.64
2023-02-19T01:54:28.138Z,4.64
2023-02-19T01:54:38.151Z,4.65
2023-02-19T01:54:48.135Z,4.64
2023-02-19T01:54:58.188Z,4.65
2023-02-19T01:55:08.131Z,4.65
2023-02-19T01:55:18.138Z,4.65
2023-02-19T01:55:28.133Z,4.64
2023-02-19T01:55:38.130Z,4.63
2023-02-19T01:55:48.126Z,4.63
2023-02-19T01:55:58.126Z,4.63
2023-02-19T01:56:08.146Z,4.63
2023-02-19T01:56:18.115Z,4.63
2023-02-19T01:56:28.132Z,4.62
2023-02-19T01:56:38.138Z,4.61
2023-02-19T01:56:48.141Z,4.61
2023-02-19T01:56:58.120Z,4.59
2023-02-19T01:57:08.140Z,4.59
2023-02-19T01:57:18.133Z,4.57
2023-02-19T01:57:28.116Z,4.56
2023-02-19T01:57:38.149Z,4.56
2023-02-19T01:57:48.136Z,4.55
2023-02-19T01:57:58.141Z,4.54
2023-02-19T01:58:08.132Z,4.54
2023-02-19T01:58:18.130Z,4.54
2023-02-19T01:58:28.121Z,4.55
2023-02-19T01:58:38.131Z,4.55
2023-02-19T01:58:48.134Z,4.56
2023-02-19T01:58:58.153Z,4.56
2023-02-19T01:59:08.129Z,4.56
2023-02-19T01:59:18.137Z,4.57
2023-02-19T01:59:28.129Z,4.56
2023-02-19T01:59:38.114Z,4.56
2023-02-19T01:59:48.114Z,4.57
2023-02-19T01:59:58.198Z,4.57
2023-02-19T02:00:08.108Z,4.57
2023-02-19T02:00:18.110Z,4.57
2023-02-19T02:00:28.112Z,4.55
2023-02-19T02:00:38.136Z,4.55
2023-02-19T02:00:48.115Z,4.56
2023-02-19T02:00:58.159Z,4.55
2023-02-19T02:01:08.368Z,4.52
2023-02-19T02:01:18.117Z,4.51
2023-02-19T02:01:28.127Z,4.52
2023-02-19T02:01:38.177Z,4.51
2023-02-19T02:01:48.165Z,4.51
2023-02-19T02:01:58.153Z,4.50
2023-02-19T02:02:08.161Z,4.51
2023-02-19T02:02:18.133Z,4.50
2023-02-19T02:02:28.109Z,4.50
2023-02-19T02:02:38.100Z,4.49
2023-02-19T02:02:48.105Z,4.48
2023-02-19T02:02:58.105Z,4.47
2023-02-19T02:03:08.114Z,4.47
2023-02-19T02:03:18.121Z,4.46
2023-02-19T02:03:28.106Z,4.46
2023-02-19T02:03:38.131Z,4.45
2023-02-19T02:03:48.108Z,4.45
2023-02-19T02:03:58.110Z,4.44
2023-02-19T02:04:08.112Z,4.45
2023-02-19T02:04:18.099Z,4.43
2023-02-19T02:04:28.084Z,4.42
2023-02-19T02:04:38.091Z,4.42
2023-02-19T02:04:48.106Z,4.41
2023-02-19T02:04:58.109Z,4.41
2023-02-19T02:05:08.140Z,4.41
2023-02-19T02:05:18.081Z,4.41
2023-02-19T02:05:28.085Z,4.40
2023-02-19T02:05:38.098Z,4.39
2023-02-19T02:05:48.097Z,4.40
2023-02-19T02:05:58.109Z,4.39
2023-02-19T02:06:08.096Z,4.38
2023-02-19T02:06:18.096Z,4.38
2023-02-19T02:06:28.076Z,4.38
2023-02-19T02:06:38.105Z,4.37
2023-02-19T02:06:48.091Z,4.37
2023-02-19T02:06:58.107Z,4.37
2023-02-19T02:07:08.094Z,4.38
2023-02-19T02:07:18.098Z,4.39
2023-02-19T02:07:28.093Z,4.39
2023-02-19T02:07:38.104Z,4.39
2023-02-19T02:07:48.100Z,4.39
2023-02-19T02:07:58.087Z,4.39
2023-02-19T02:08:08.086Z,4.39
2023-02-19T02:08:18.097Z,4.39
2023-02-19T02:08:28.085Z,4.40
2023-02-19T02:08:38.102Z,4.40
2023-02-19T02:08:48.099Z,4.41
2023-02-19T02:08:58.113Z,4.41
2023-02-19T02:09:08.106Z,4.41
2023-02-19T02:09:18.117Z,4.41
2023-02-19T02:09:28.158Z,4.42
2023-02-19T02:09:38.149Z,4.41
2023-02-19T02:09:48.134Z,4.41
2023-02-19T02:09:58.159Z,4.40
2023-02-19T02:10:08.217Z,4.40
2023-02-19T02:10:18.143Z,4.39
2023-02-19T02:10:28.180Z,4.39
2023-02-19T02:10:38.165Z,4.39
2023-02-19T02:10:48.204Z,4.38
2023-02-19T02:10:58.198Z,4.37
2023-02-19T02:11:08.740Z,4.36
2023-02-19T02:11:18.238Z,4.35
2023-02-19T02:11:28.198Z,4.35
2023-02-19T02:11:38.213Z,4.33
2023-02-19T02:11:48.223Z,4.33
2023-02-19T02:11:58.219Z,4.32
2023-02-19T02:12:08.225Z,4.30
2023-02-19T02:12:18.210Z,4.28
2023-02-19T02:12:28.218Z,4.26
2023-02-19T02:12:38.215Z,4.26
2023-02-19T02:12:48.208Z,4.26
2023-02-19T02:12:58.216Z,4.26
2023-02-19T02:13:08.202Z,4.27